sensor_id;sensor_type;location;lat;lon;timestamp;temperature;humidity
7518;DHT22;3800;48.922;9.444;2023-04-03T00:00:56;2.70;99.90
7518;DHT22;3800;48.922;9.444;2023-04-03T00:03:24;2.60;99.90
7518;DHT22;3800;48.922;9.444;2023-04-03T00:05:53;2.60;99.90
7518;DHT22;3800;48.922;9.444;2023-04-03T00:08:21;2.60;99.90
7518;DHT22;3800;48.922;9.444;2023-04-03T00:10:49;2.60;99.90
7518;DHT22;3800;48.922;9.444;2023-04-03T00:13:18;2.60;99.90
7518;DHT22;3800;48.922;9.444;2023-04-03T00:15:46;2.50;99.90
7518;DHT22;3800;48.922;9.444;2023-04-03T00:18:15;2.60;99.90
7518;DHT22;3800;48.922;9.444;2023-04-03T00:20:43;2.50;99.90
7518;DHT22;3800;48.922;9.444;2023-04-03T00:23:12;2.50;99.90
7518;DHT22;3800;48.922;9.444;2023-04-03T00:25:40;2.50;99.90
7518;DHT22;3800;48.922;9.444;2023-04-03T00:28:09;2.50;99.90
7518;DHT22;3800;48.922;9.444;2023-04-03T00:30:37;2.50;99.90
7518;DHT22;3800;48.922;9.444;2023-04-03T00:33:05;2.60;99.90
7518;DHT22;3800;48.922;9.444;2023-04-03T00:35:34;2.50;99.90
7518;DHT22;3800;48.922;9.444;2023-04-03T00:38:02;2.60;99.90
7518;DHT22;3800;48.922;9.444;2023-04-03T00:40:33;2.60;99.90
7518;DHT22;3800;48.922;9.444;2023-04-03T00:42:58;2.60;99.90
7518;DHT22;3800;48.922;9.444;2023-04-03T00:45:30;2.60;99.90
7518;DHT22;3800;48.922;9.444;2023-04-03T00:48:00;2.60;99.90
7518;DHT22;3800;48.922;9.444;2023-04-03T00:50:28;2.60;99.90
7518;DHT22;3800;48.922;9.444;2023-04-03T00:52:56;2.60;99.90
7518;DHT22;3800;48.922;9.444;2023-04-03T00:55:24;2.60;99.90
7518;DHT22;3800;48.922;9.444;2023-04-03T00:57:53;2.60;99.90
7518;DHT22;3800;48.922;9.444;2023-04-03T01:00:21;2.60;99.90
7518;DHT22;3800;48.922;9.444;2023-04-03T01:02:49;2.60;99.90
7518;DHT22;3800;48.922;9.444;2023-04-03T01:05:19;2.60;99.90
7518;DHT22;3800;48.922;9.444;2023-04-03T01:07:46;2.60;99.90
7518;DHT22;3800;48.922;9.444;2023-04-03T01:10:15;2.60;99.90
7518;DHT22;3800;48.922;9.444;2023-04-03T01:12:44;2.60;99.90
7518;DHT22;3800;48.922;9.444;2023-04-03T01:15:13;2.60;99.90
7518;DHT22;3800;48.922;9.444;2023-04-03T01:17:50;2.70;99.90
7518;DHT22;3800;48.922;9.444;2023-04-03T01:21:07;2.70;99.90
7518;DHT22;3800;48.922;9.444;2023-04-03T01:23:34;2.70;99.90
7518;DHT22;3800;48.922;9.444;2023-04-03T01:26:02;2.80;99.90
7518;DHT22;3800;48.922;9.444;2023-04-03T01:28:32;2.80;99.90
7518;DHT22;3800;48.922;9.444;2023-04-03T01:33:49;2.80;99.90
7518;DHT22;3800;48.922;9.444;2023-04-03T01:36:21;2.80;99.90
7518;DHT22;3800;48.922;9.444;2023-04-03T01:38:48;2.80;99.90
7518;DHT22;3800;48.922;9.444;2023-04-03T01:41:16;2.90;99.90
7518;DHT22;3800;48.922;9.444;2023-04-03T01:43:44;2.90;99.90
7518;DHT22;3800;48.922;9.444;2023-04-03T01:46:12;2.90;99.90
7518;DHT22;3800;48.922;9.444;2023-04-03T01:48:41;2.90;99.90
7518;DHT22;3800;48.922;9.444;2023-04-03T01:51:09;2.90;99.90
7518;DHT22;3800;48.922;9.444;2023-04-03T01:53:37;2.90;99.90
7518;DHT22;3800;48.922;9.444;2023-04-03T01:56:05;2.90;99.90
7518;DHT22;3800;48.922;9.444;2023-04-03T01:58:34;2.90;99.90
7518;DHT22;3800;48.922;9.444;2023-04-03T02:01:02;2.90;99.90
7518;DHT22;3800;48.922;9.444;2023-04-03T02:03:30;2.90;99.90
7518;DHT22;3800;48.922;9.444;2023-04-03T02:05:59;2.90;99.90
7518;DHT22;3800;48.922;9.444;2023-04-03T02:08:27;2.90;99.90
7518;DHT22;3800;48.922;9.444;2023-04-03T02:10:55;2.90;99.90
7518;DHT22;3800;48.922;9.444;2023-04-03T02:13:24;2.90;99.90
7518;DHT22;3800;48.922;9.444;2023-04-03T02:15:52;2.90;99.90
7518;DHT22;3800;48.922;9.444;2023-04-03T02:18:21;2.90;99.90
7518;DHT22;3800;48.922;9.444;2023-04-03T02:20:49;3.00;99.90
7518;DHT22;3800;48.922;9.444;2023-04-03T02:23:18;3.00;99.90
7518;DHT22;3800;48.922;9.444;2023-04-03T02:25:46;3.00;99.90
7518;DHT22;3800;48.922;9.444;2023-04-03T02:28:14;3.00;99.90
7518;DHT22;3800;48.922;9.444;2023-04-03T02:30:43;3.00;99.90
7518;DHT22;3800;48.922;9.444;2023-04-03T02:33:11;3.00;99.90
7518;DHT22;3800;48.922;9.444;2023-04-03T02:35:39;3.00;99.90
7518;DHT22;3800;48.922;9.444;2023-04-03T02:38:07;3.00;99.90
7518;DHT22;3800;48.922;9.444;2023-04-03T02:40:36;3.00;99.90
7518;DHT22;3800;48.922;9.444;2023-04-03T02:43:04;3.00;99.90
7518;DHT22;3800;48.922;9.444;2023-04-03T02:45:32;3.10;99.90
7518;DHT22;3800;48.922;9.444;2023-04-03T02:50:57;3.10;99.90
7518;DHT22;3800;48.922;9.444;2023-04-03T02:53:26;3.10;99.90
7518;DHT22;3800;48.922;9.444;2023-04-03T02:55:55;3.10;99.90
7518;DHT22;3800;48.922;9.444;2023-04-03T02:58:23;3.10;99.90
7518;DHT22;3800;48.922;9.444;2023-04-03T03:00:51;3.10;99.90
7518;DHT22;3800;48.922;9.444;2023-04-03T03:03:20;3.10;99.90
7518;DHT22;3800;48.922;9.444;2023-04-03T03:05:49;3.10;99.90
7518;DHT22;3800;48.922;9.444;2023-04-03T03:08:17;3.10;99.90
7518;DHT22;3800;48.922;9.444;2023-04-03T03:10:45;3.10;99.90
7518;DHT22;3800;48.922;9.444;2023-04-03T03:13:13;3.10;99.90
7518;DHT22;3800;48.922;9.444;2023-04-03T03:15:42;3.10;99.90
7518;DHT22;3800;48.922;9.444;2023-04-03T03:18:10;3.10;99.90
7518;DHT22;3800;48.922;9.444;2023-04-03T03:20:38;3.20;99.90
7518;DHT22;3800;48.922;9.444;2023-04-03T03:23:06;3.10;99.90
7518;DHT22;3800;48.922;9.444;2023-04-03T03:25:38;3.20;99.90
7518;DHT22;3800;48.922;9.444;2023-04-03T03:28:06;3.20;99.90
7518;DHT22;3800;48.922;9.444;2023-04-03T03:30:34;3.20;99.90
7518;DHT22;3800;48.922;9.444;2023-04-03T03:33:02;3.20;99.90
7518;DHT22;3800;48.922;9.444;2023-04-03T03:35:31;3.20;99.90
7518;DHT22;3800;48.922;9.444;2023-04-03T03:37:59;3.20;99.90
7518;DHT22;3800;48.922;9.444;2023-04-03T03:40:27;3.20;99.90
7518;DHT22;3800;48.922;9.444;2023-04-03T03:42:56;3.20;99.90
7518;DHT22;3800;48.922;9.444;2023-04-03T03:45:24;3.20;99.90
7518;DHT22;3800;48.922;9.444;2023-04-03T03:47:53;3.20;99.90
7518;DHT22;3800;48.922;9.444;2023-04-03T03:50:22;3.20;99.90
7518;DHT22;3800;48.922;9.444;2023-04-03T03:52:50;3.20;99.90
7518;DHT22;3800;48.922;9.444;2023-04-03T03:55:18;3.20;99.90
7518;DHT22;3800;48.922;9.444;2023-04-03T03:57:47;3.20;99.90
7518;DHT22;3800;48.922;9.444;2023-04-03T04:00:15;3.20;99.90
7518;DHT22;3800;48.922;9.444;2023-04-03T04:02:43;3.20;99.90
7518;DHT22;3800;48.922;9.444;2023-04-03T04:05:11;3.20;99.90
7518;DHT22;3800;48.922;9.444;2023-04-03T04:07:41;3.20;99.90
7518;DHT22;3800;48.922;9.444;2023-04-03T04:10:09;3.10;99.90
7518;DHT22;3800;48.922;9.444;2023-04-03T04:12:37;3.10;99.90
7518;DHT22;3800;48.922;9.444;2023-04-03T04:15:06;3.10;99.90
7518;DHT22;3800;48.922;9.444;2023-04-03T04:17:35;3.10;99.90
7518;DHT22;3800;48.922;9.444;2023-04-03T04:20:03;3.10;99.90
7518;DHT22;3800;48.922;9.444;2023-04-03T04:22:31;3.10;99.90
7518;DHT22;3800;48.922;9.444;2023-04-03T04:25:00;3.10;99.90
7518;DHT22;3800;48.922;9.444;2023-04-03T04:27:28;3.10;99.90
7518;DHT22;3800;48.922;9.444;2023-04-03T04:29:56;3.10;99.90
7518;DHT22;3800;48.922;9.444;2023-04-03T04:32:24;3.10;99.90
7518;DHT22;3800;48.922;9.444;2023-04-03T04:34:53;3.10;99.90
7518;DHT22;3800;48.922;9.444;2023-04-03T04:37:21;3.00;99.90
7518;DHT22;3800;48.922;9.444;2023-04-03T04:39:49;3.00;99.90
7518;DHT22;3800;48.922;9.444;2023-04-03T04:42:17;3.00;99.90
7518;DHT22;3800;48.922;9.444;2023-04-03T04:44:46;2.90;99.90
7518;DHT22;3800;48.922;9.444;2023-04-03T04:47:14;2.90;99.90
7518;DHT22;3800;48.922;9.444;2023-04-03T04:49:42;2.80;99.90
7518;DHT22;3800;48.922;9.444;2023-04-03T04:52:10;2.80;99.90
7518;DHT22;3800;48.922;9.444;2023-04-03T04:54:39;2.80;99.90
7518;DHT22;3800;48.922;9.444;2023-04-03T04:57:07;2.80;99.90
7518;DHT22;3800;48.922;9.444;2023-04-03T04:59:35;2.80;99.90
7518;DHT22;3800;48.922;9.444;2023-04-03T05:02:03;2.70;99.90
7518;DHT22;3800;48.922;9.444;2023-04-03T05:04:32;2.70;99.90
7518;DHT22;3800;48.922;9.444;2023-04-03T05:07:00;2.70;99.90
7518;DHT22;3800;48.922;9.444;2023-04-03T05:09:28;2.60;99.90
7518;DHT22;3800;48.922;9.444;2023-04-03T05:11:56;2.60;99.90
7518;DHT22;3800;48.922;9.444;2023-04-03T05:14:25;2.50;99.90
7518;DHT22;3800;48.922;9.444;2023-04-03T05:16:53;2.50;99.90
7518;DHT22;3800;48.922;9.444;2023-04-03T05:19:21;2.50;99.90
7518;DHT22;3800;48.922;9.444;2023-04-03T05:21:49;2.50;99.90
7518;DHT22;3800;48.922;9.444;2023-04-03T05:24:18;2.50;99.90
7518;DHT22;3800;48.922;9.444;2023-04-03T05:26:46;2.50;99.90
7518;DHT22;3800;48.922;9.444;2023-04-03T05:29:14;2.40;99.90
7518;DHT22;3800;48.922;9.444;2023-04-03T05:31:42;2.40;99.90
7518;DHT22;3800;48.922;9.444;2023-04-03T05:34:11;2.40;99.90
7518;DHT22;3800;48.922;9.444;2023-04-03T05:36:39;2.40;99.90
7518;DHT22;3800;48.922;9.444;2023-04-03T05:39:07;2.40;99.90
7518;DHT22;3800;48.922;9.444;2023-04-03T05:41:35;2.50;99.90
7518;DHT22;3800;48.922;9.444;2023-04-03T05:44:04;2.50;99.90
7518;DHT22;3800;48.922;9.444;2023-04-03T05:46:32;2.50;99.90
7518;DHT22;3800;48.922;9.444;2023-04-03T05:49:00;2.50;99.90
7518;DHT22;3800;48.922;9.444;2023-04-03T05:51:31;2.60;99.90
7518;DHT22;3800;48.922;9.444;2023-04-03T05:54:10;2.60;99.90
7518;DHT22;3800;48.922;9.444;2023-04-03T05:56:40;2.70;99.90
7518;DHT22;3800;48.922;9.444;2023-04-03T05:59:08;2.70;99.90
7518;DHT22;3800;48.922;9.444;2023-04-03T06:01:36;2.70;99.90
7518;DHT22;3800;48.922;9.444;2023-04-03T06:04:05;2.80;99.90
7518;DHT22;3800;48.922;9.444;2023-04-03T06:06:45;2.80;99.90
7518;DHT22;3800;48.922;9.444;2023-04-03T06:09:17;2.80;99.90
7518;DHT22;3800;48.922;9.444;2023-04-03T06:11:45;2.80;99.90
7518;DHT22;3800;48.922;9.444;2023-04-03T06:14:14;2.80;99.90
7518;DHT22;3800;48.922;9.444;2023-04-03T06:16:42;2.90;99.90
7518;DHT22;3800;48.922;9.444;2023-04-03T06:19:10;2.90;99.90
7518;DHT22;3800;48.922;9.444;2023-04-03T06:21:38;2.90;99.90
7518;DHT22;3800;48.922;9.444;2023-04-03T06:24:07;2.90;99.90
7518;DHT22;3800;48.922;9.444;2023-04-03T06:26:36;2.90;99.90
7518;DHT22;3800;48.922;9.444;2023-04-03T06:29:05;3.00;99.90
7518;DHT22;3800;48.922;9.444;2023-04-03T06:31:33;3.00;99.90
7518;DHT22;3800;48.922;9.444;2023-04-03T06:34:01;3.00;99.90
7518;DHT22;3800;48.922;9.444;2023-04-03T06:36:29;3.10;99.90
7518;DHT22;3800;48.922;9.444;2023-04-03T06:38:58;3.10;99.90
7518;DHT22;3800;48.922;9.444;2023-04-03T06:41:27;3.20;99.90
7518;DHT22;3800;48.922;9.444;2023-04-03T06:43:55;3.20;99.90
7518;DHT22;3800;48.922;9.444;2023-04-03T06:46:24;3.20;99.90
7518;DHT22;3800;48.922;9.444;2023-04-03T06:48:52;3.30;99.90
7518;DHT22;3800;48.922;9.444;2023-04-03T06:51:21;3.30;99.90
7518;DHT22;3800;48.922;9.444;2023-04-03T06:53:50;3.40;99.90
7518;DHT22;3800;48.922;9.444;2023-04-03T06:56:18;3.40;99.90
7518;DHT22;3800;48.922;9.444;2023-04-03T06:58:46;3.50;99.90
7518;DHT22;3800;48.922;9.444;2023-04-03T07:01:15;3.50;99.90
7518;DHT22;3800;48.922;9.444;2023-04-03T07:03:42;3.50;99.90
7518;DHT22;3800;48.922;9.444;2023-04-03T07:06:12;3.50;99.90
7518;DHT22;3800;48.922;9.444;2023-04-03T07:08:40;3.60;99.90
7518;DHT22;3800;48.922;9.444;2023-04-03T07:11:08;3.70;99.90
7518;DHT22;3800;48.922;9.444;2023-04-03T07:13:36;3.70;99.90
7518;DHT22;3800;48.922;9.444;2023-04-03T07:16:05;3.70;99.90
7518;DHT22;3800;48.922;9.444;2023-04-03T07:18:33;3.70;99.90
7518;DHT22;3800;48.922;9.444;2023-04-03T07:21:02;3.70;99.90
7518;DHT22;3800;48.922;9.444;2023-04-03T07:23:30;3.80;99.90
7518;DHT22;3800;48.922;9.444;2023-04-03T07:25:58;3.90;99.90
7518;DHT22;3800;48.922;9.444;2023-04-03T07:28:27;4.00;99.90
7518;DHT22;3800;48.922;9.444;2023-04-03T07:31:01;4.10;99.90
7518;DHT22;3800;48.922;9.444;2023-04-03T07:33:29;4.10;99.90
7518;DHT22;3800;48.922;9.444;2023-04-03T07:35:57;4.10;99.90
7518;DHT22;3800;48.922;9.444;2023-04-03T07:38:25;4.20;99.90
7518;DHT22;3800;48.922;9.444;2023-04-03T07:40:53;4.30;99.90
7518;DHT22;3800;48.922;9.444;2023-04-03T07:43:22;4.30;99.90
7518;DHT22;3800;48.922;9.444;2023-04-03T07:45:50;4.40;99.90
7518;DHT22;3800;48.922;9.444;2023-04-03T07:48:19;4.40;99.90
7518;DHT22;3800;48.922;9.444;2023-04-03T07:50:46;4.40;99.90
7518;DHT22;3800;48.922;9.444;2023-04-03T07:53:15;4.60;99.90
7518;DHT22;3800;48.922;9.444;2023-04-03T07:55:47;4.50;99.90
7518;DHT22;3800;48.922;9.444;2023-04-03T07:58:16;4.50;99.90
7518;DHT22;3800;48.922;9.444;2023-04-03T08:00:43;4.50;99.90
7518;DHT22;3800;48.922;9.444;2023-04-03T08:03:12;4.60;99.90
7518;DHT22;3800;48.922;9.444;2023-04-03T08:05:40;4.60;99.90
7518;DHT22;3800;48.922;9.444;2023-04-03T08:08:09;4.60;99.90
7518;DHT22;3800;48.922;9.444;2023-04-03T08:10:36;4.60;99.90
7518;DHT22;3800;48.922;9.444;2023-04-03T08:13:05;4.60;99.90
7518;DHT22;3800;48.922;9.444;2023-04-03T08:15:34;4.80;99.90
7518;DHT22;3800;48.922;9.444;2023-04-03T08:18:02;4.80;99.90
7518;DHT22;3800;48.922;9.444;2023-04-03T08:20:30;4.80;99.90
7518;DHT22;3800;48.922;9.444;2023-04-03T08:22:59;4.80;99.90
7518;DHT22;3800;48.922;9.444;2023-04-03T08:25:27;4.80;99.90
7518;DHT22;3800;48.922;9.444;2023-04-03T08:27:55;4.80;99.90
7518;DHT22;3800;48.922;9.444;2023-04-03T08:30:23;4.80;99.90
7518;DHT22;3800;48.922;9.444;2023-04-03T08:32:52;4.90;99.90
7518;DHT22;3800;48.922;9.444;2023-04-03T08:35:20;5.00;99.90
7518;DHT22;3800;48.922;9.444;2023-04-03T08:37:49;5.10;99.90
7518;DHT22;3800;48.922;9.444;2023-04-03T08:40:17;5.10;99.90
7518;DHT22;3800;48.922;9.444;2023-04-03T08:45:53;5.20;99.90
7518;DHT22;3800;48.922;9.444;2023-04-03T08:48:38;5.30;99.90
7518;DHT22;3800;48.922;9.444;2023-04-03T08:51:09;5.30;99.90
7518;DHT22;3800;48.922;9.444;2023-04-03T08:53:34;5.30;99.90
7518;DHT22;3800;48.922;9.444;2023-04-03T08:56:02;5.40;99.90
7518;DHT22;3800;48.922;9.444;2023-04-03T08:58:32;5.50;99.90
7518;DHT22;3800;48.922;9.444;2023-04-03T09:01:02;5.50;99.90
7518;DHT22;3800;48.922;9.444;2023-04-03T09:03:32;5.50;99.90
7518;DHT22;3800;48.922;9.444;2023-04-03T09:06:04;5.50;99.90
7518;DHT22;3800;48.922;9.444;2023-04-03T09:08:36;5.60;99.90
7518;DHT22;3800;48.922;9.444;2023-04-03T09:11:27;5.60;99.90
7518;DHT22;3800;48.922;9.444;2023-04-03T09:14:02;5.60;99.90
7518;DHT22;3800;48.922;9.444;2023-04-03T09:16:45;5.60;99.90
7518;DHT22;3800;48.922;9.444;2023-04-03T09:20:07;5.60;99.90
7518;DHT22;3800;48.922;9.444;2023-04-03T09:22:28;5.60;99.90
7518;DHT22;3800;48.922;9.444;2023-04-03T09:25:05;5.70;99.90
7518;DHT22;3800;48.922;9.444;2023-04-03T09:27:48;5.70;99.90
7518;DHT22;3800;48.922;9.444;2023-04-03T09:30:18;5.70;99.90
7518;DHT22;3800;48.922;9.444;2023-04-03T09:32:46;5.80;99.90
7518;DHT22;3800;48.922;9.444;2023-04-03T09:35:21;5.90;99.90
7518;DHT22;3800;48.922;9.444;2023-04-03T09:37:49;5.90;99.90
7518;DHT22;3800;48.922;9.444;2023-04-03T09:40:29;5.90;99.90
7518;DHT22;3800;48.922;9.444;2023-04-03T09:42:58;5.80;99.90
7518;DHT22;3800;48.922;9.444;2023-04-03T09:45:30;5.80;99.90
7518;DHT22;3800;48.922;9.444;2023-04-03T09:48:12;5.80;99.90
7518;DHT22;3800;48.922;9.444;2023-04-03T09:50:37;5.80;99.90
7518;DHT22;3800;48.922;9.444;2023-04-03T09:53:06;5.80;99.90
7518;DHT22;3800;48.922;9.444;2023-04-03T09:55:41;5.90;99.90
7518;DHT22;3800;48.922;9.444;2023-04-03T09:58:03;5.90;99.90
7518;DHT22;3800;48.922;9.444;2023-04-03T10:00:33;5.90;99.90
7518;DHT22;3800;48.922;9.444;2023-04-03T10:03:02;5.90;99.90
7518;DHT22;3800;48.922;9.444;2023-04-03T10:05:33;5.90;99.90
7518;DHT22;3800;48.922;9.444;2023-04-03T10:08:10;5.80;99.90
7518;DHT22;3800;48.922;9.444;2023-04-03T10:11:18;6.00;99.90
7518;DHT22;3800;48.922;9.444;2023-04-03T10:13:50;6.00;99.90
7518;DHT22;3800;48.922;9.444;2023-04-03T10:16:22;6.00;99.90
7518;DHT22;3800;48.922;9.444;2023-04-03T10:19:11;6.10;99.90
7518;DHT22;3800;48.922;9.444;2023-04-03T10:21:45;6.00;99.90
7518;DHT22;3800;48.922;9.444;2023-04-03T10:24:17;6.10;99.90
7518;DHT22;3800;48.922;9.444;2023-04-03T10:26:55;6.20;99.90
7518;DHT22;3800;48.922;9.444;2023-04-03T10:29:27;6.20;99.90
7518;DHT22;3800;48.922;9.444;2023-04-03T10:31:59;6.10;99.90
7518;DHT22;3800;48.922;9.444;2023-04-03T10:34:28;6.20;99.90
7518;DHT22;3800;48.922;9.444;2023-04-03T10:42:58;6.20;99.90
7518;DHT22;3800;48.922;9.444;2023-04-03T10:45:32;6.20;99.90
7518;DHT22;3800;48.922;9.444;2023-04-03T10:48:11;6.20;99.90
7518;DHT22;3800;48.922;9.444;2023-04-03T10:50:47;6.20;99.90
7518;DHT22;3800;48.922;9.444;2023-04-03T10:53:27;6.20;99.90
7518;DHT22;3800;48.922;9.444;2023-04-03T10:56:01;6.20;99.90
7518;DHT22;3800;48.922;9.444;2023-04-03T10:58:31;6.10;99.90
7518;DHT22;3800;48.922;9.444;2023-04-03T11:01:02;6.00;99.90
7518;DHT22;3800;48.922;9.444;2023-04-03T11:03:40;6.10;99.90
7518;DHT22;3800;48.922;9.444;2023-04-03T11:06:09;6.00;99.90
7518;DHT22;3800;48.922;9.444;2023-04-03T11:08:42;6.00;99.90
7518;DHT22;3800;48.922;9.444;2023-04-03T11:11:09;6.00;99.90
7518;DHT22;3800;48.922;9.444;2023-04-03T11:13:39;6.00;99.90
7518;DHT22;3800;48.922;9.444;2023-04-03T11:16:06;6.10;99.90
7518;DHT22;3800;48.922;9.444;2023-04-03T11:18:37;6.10;99.90
7518;DHT22;3800;48.922;9.444;2023-04-03T11:21:21;6.00;99.90
7518;DHT22;3800;48.922;9.444;2023-04-03T11:23:51;6.00;99.90
7518;DHT22;3800;48.922;9.444;2023-04-03T11:26:19;5.90;99.90
7518;DHT22;3800;48.922;9.444;2023-04-03T11:28:46;6.00;99.90
7518;DHT22;3800;48.922;9.444;2023-04-03T11:34:42;6.00;99.90
7518;DHT22;3800;48.922;9.444;2023-04-03T11:37:22;6.10;99.90
7518;DHT22;3800;48.922;9.444;2023-04-03T11:39:54;6.20;99.90
7518;DHT22;3800;48.922;9.444;2023-04-03T11:42:29;6.40;99.90
7518;DHT22;3800;48.922;9.444;2023-04-03T11:47:46;6.40;99.90
7518;DHT22;3800;48.922;9.444;2023-04-03T11:50:42;6.50;99.90
7518;DHT22;3800;48.922;9.444;2023-04-03T11:53:29;6.50;99.90
7518;DHT22;3800;48.922;9.444;2023-04-03T11:55:59;6.60;99.90
7518;DHT22;3800;48.922;9.444;2023-04-03T11:58:32;6.50;99.90
7518;DHT22;3800;48.922;9.444;2023-04-03T12:01:00;6.60;99.90
7518;DHT22;3800;48.922;9.444;2023-04-03T12:03:32;6.70;99.90
7518;DHT22;3800;48.922;9.444;2023-04-03T12:11:52;6.70;99.90
7518;DHT22;3800;48.922;9.444;2023-04-03T12:14:22;6.70;99.90
7518;DHT22;3800;48.922;9.444;2023-04-03T12:16:48;6.70;99.90
7518;DHT22;3800;48.922;9.444;2023-04-03T12:19:36;6.60;99.90
7518;DHT22;3800;48.922;9.444;2023-04-03T12:22:05;6.60;99.90
7518;DHT22;3800;48.922;9.444;2023-04-03T12:24:34;6.60;99.90
7518;DHT22;3800;48.922;9.444;2023-04-03T12:27:21;6.60;99.90
7518;DHT22;3800;48.922;9.444;2023-04-03T12:29:58;6.60;99.90
7518;DHT22;3800;48.922;9.444;2023-04-03T12:35:36;6.50;99.90
7518;DHT22;3800;48.922;9.444;2023-04-03T12:38:14;6.50;99.90
7518;DHT22;3800;48.922;9.444;2023-04-03T12:43:54;6.40;99.90
7518;DHT22;3800;48.922;9.444;2023-04-03T12:46:23;6.70;99.90
7518;DHT22;3800;48.922;9.444;2023-04-03T12:48:54;6.60;99.90
7518;DHT22;3800;48.922;9.444;2023-04-03T12:51:37;6.70;99.90
7518;DHT22;3800;48.922;9.444;2023-04-03T12:54:27;6.80;99.90
7518;DHT22;3800;48.922;9.444;2023-04-03T12:57:19;6.80;99.40
7518;DHT22;3800;48.922;9.444;2023-04-03T12:59:47;6.70;99.30
7518;DHT22;3800;48.922;9.444;2023-04-03T13:02:27;6.70;99.30
7518;DHT22;3800;48.922;9.444;2023-04-03T13:04:57;6.60;99.80
7518;DHT22;3800;48.922;9.444;2023-04-03T13:07:28;6.60;99.90
7518;DHT22;3800;48.922;9.444;2023-04-03T13:09:56;6.50;99.70
7518;DHT22;3800;48.922;9.444;2023-04-03T13:12:24;6.60;99.50
7518;DHT22;3800;48.922;9.444;2023-04-03T13:14:56;6.60;99.90
7518;DHT22;3800;48.922;9.444;2023-04-03T13:17:24;6.70;99.90
7518;DHT22;3800;48.922;9.444;2023-04-03T13:19:52;6.80;99.90
7518;DHT22;3800;48.922;9.444;2023-04-03T13:22:31;6.90;99.20
7518;DHT22;3800;48.922;9.444;2023-04-03T13:24:58;6.90;99.10
7518;DHT22;3800;48.922;9.444;2023-04-03T13:27:26;6.90;98.50
7518;DHT22;3800;48.922;9.444;2023-04-03T13:29:56;6.90;98.30
7518;DHT22;3800;48.922;9.444;2023-04-03T13:32:24;6.80;98.30
7518;DHT22;3800;48.922;9.444;2023-04-03T13:34:51;6.80;98.00
7518;DHT22;3800;48.922;9.444;2023-04-03T13:37:30;6.80;98.00
7518;DHT22;3800;48.922;9.444;2023-04-03T13:40:12;6.90;99.90
7518;DHT22;3800;48.922;9.444;2023-04-03T13:42:41;6.90;99.60
7518;DHT22;3800;48.922;9.444;2023-04-03T13:48:08;7.20;99.50
7518;DHT22;3800;48.922;9.444;2023-04-03T13:50:52;7.20;97.60
7518;DHT22;3800;48.922;9.444;2023-04-03T13:53:19;7.20;99.40
7518;DHT22;3800;48.922;9.444;2023-04-03T13:55:56;7.20;98.40
7518;DHT22;3800;48.922;9.444;2023-04-03T13:58:23;7.10;97.40
7518;DHT22;3800;48.922;9.444;2023-04-03T14:00:53;7.10;97.50
7518;DHT22;3800;48.922;9.444;2023-04-03T14:03:24;7.10;97.60
7518;DHT22;3800;48.922;9.444;2023-04-03T14:05:52;7.10;97.70
7518;DHT22;3800;48.922;9.444;2023-04-03T14:08:21;7.10;97.70
7518;DHT22;3800;48.922;9.444;2023-04-03T14:10:49;7.10;96.50
7518;DHT22;3800;48.922;9.444;2023-04-03T14:13:18;7.00;96.60
7518;DHT22;3800;48.922;9.444;2023-04-03T14:15:47;7.00;96.60
7518;DHT22;3800;48.922;9.444;2023-04-03T14:18:15;7.10;97.90
7518;DHT22;3800;48.922;9.444;2023-04-03T14:20:44;7.10;96.20
7518;DHT22;3800;48.922;9.444;2023-04-03T14:23:11;7.10;96.20
7518;DHT22;3800;48.922;9.444;2023-04-03T14:25:40;7.10;97.20
7518;DHT22;3800;48.922;9.444;2023-04-03T14:28:17;7.00;95.30
7518;DHT22;3800;48.922;9.444;2023-04-03T14:30:46;6.90;97.20
7518;DHT22;3800;48.922;9.444;2023-04-03T14:33:15;6.90;96.30
7518;DHT22;3800;48.922;9.444;2023-04-03T14:35:43;6.90;96.30
7518;DHT22;3800;48.922;9.444;2023-04-03T14:38:25;6.90;95.90
7518;DHT22;3800;48.922;9.444;2023-04-03T14:40:53;6.90;96.00
7518;DHT22;3800;48.922;9.444;2023-04-03T14:43:22;6.90;96.50
7518;DHT22;3800;48.922;9.444;2023-04-03T14:45:50;6.80;96.90
7518;DHT22;3800;48.922;9.444;2023-04-03T14:48:20;6.80;96.80
7518;DHT22;3800;48.922;9.444;2023-04-03T14:50:48;6.80;96.10
7518;DHT22;3800;48.922;9.444;2023-04-03T14:53:17;6.80;96.80
7518;DHT22;3800;48.922;9.444;2023-04-03T14:55:45;6.80;97.60
7518;DHT22;3800;48.922;9.444;2023-04-03T14:58:18;7.00;96.40
7518;DHT22;3800;48.922;9.444;2023-04-03T15:00:45;7.00;96.40
7518;DHT22;3800;48.922;9.444;2023-04-03T15:03:16;7.00;94.60
7518;DHT22;3800;48.922;9.444;2023-04-03T15:05:44;7.30;95.80
7518;DHT22;3800;48.922;9.444;2023-04-03T15:08:20;7.30;95.80
7518;DHT22;3800;48.922;9.444;2023-04-03T15:10:48;7.40;95.40
7518;DHT22;3800;48.922;9.444;2023-04-03T15:13:16;7.30;95.30
7518;DHT22;3800;48.922;9.444;2023-04-03T15:15:44;7.30;95.50
7518;DHT22;3800;48.922;9.444;2023-04-03T15:18:17;7.20;96.60
7518;DHT22;3800;48.922;9.444;2023-04-03T15:20:44;7.10;96.20
7518;DHT22;3800;48.922;9.444;2023-04-03T15:23:13;7.10;96.60
7518;DHT22;3800;48.922;9.444;2023-04-03T15:25:43;7.10;96.50
7518;DHT22;3800;48.922;9.444;2023-04-03T15:28:45;7.00;96.90
7518;DHT22;3800;48.922;9.444;2023-04-03T15:30:58;6.90;97.00
7518;DHT22;3800;48.922;9.444;2023-04-03T15:33:30;6.90;97.50
7518;DHT22;3800;48.922;9.444;2023-04-03T15:35:58;6.90;98.00
7518;DHT22;3800;48.922;9.444;2023-04-03T15:38:26;6.90;97.00
7518;DHT22;3800;48.922;9.444;2023-04-03T15:40:54;6.90;97.30
7518;DHT22;3800;48.922;9.444;2023-04-03T15:43:22;7.20;97.50
7518;DHT22;3800;48.922;9.444;2023-04-03T15:45:52;7.50;96.60
7518;DHT22;3800;48.922;9.444;2023-04-03T15:48:19;7.60;95.80
7518;DHT22;3800;48.922;9.444;2023-04-03T15:50:48;7.60;94.90
7518;DHT22;3800;48.922;9.444;2023-04-03T15:53:17;7.50;95.70
7518;DHT22;3800;48.922;9.444;2023-04-03T15:55:45;7.40;94.70
7518;DHT22;3800;48.922;9.444;2023-04-03T15:58:14;7.40;95.40
7518;DHT22;3800;48.922;9.444;2023-04-03T16:00:43;7.50;95.50
7518;DHT22;3800;48.922;9.444;2023-04-03T16:03:12;7.60;96.00
7518;DHT22;3800;48.922;9.444;2023-04-03T16:05:40;7.50;95.70
7518;DHT22;3800;48.922;9.444;2023-04-03T16:08:08;7.30;96.10
7518;DHT22;3800;48.922;9.444;2023-04-03T16:10:37;7.20;94.80
7518;DHT22;3800;48.922;9.444;2023-04-03T16:13:06;7.00;94.90
7518;DHT22;3800;48.922;9.444;2023-04-03T16:15:37;6.90;95.70
7518;DHT22;3800;48.922;9.444;2023-04-03T16:18:06;6.90;95.70
7518;DHT22;3800;48.922;9.444;2023-04-03T16:20:35;7.10;97.10
7518;DHT22;3800;48.922;9.444;2023-04-03T16:23:03;7.10;97.10
7518;DHT22;3800;48.922;9.444;2023-04-03T16:25:31;7.10;96.40
7518;DHT22;3800;48.922;9.444;2023-04-03T16:28:00;7.10;96.50
7518;DHT22;3800;48.922;9.444;2023-04-03T16:30:28;7.00;96.60
7518;DHT22;3800;48.922;9.444;2023-04-03T16:32:56;6.90;95.50
7518;DHT22;3800;48.922;9.444;2023-04-03T16:35:24;6.90;96.50
7518;DHT22;3800;48.922;9.444;2023-04-03T16:37:52;6.80;95.20
7518;DHT22;3800;48.922;9.444;2023-04-03T16:40:21;6.70;95.60
7518;DHT22;3800;48.922;9.444;2023-04-03T16:42:49;6.60;95.70
7518;DHT22;3800;48.922;9.444;2023-04-03T16:45:17;6.60;96.50
7518;DHT22;3800;48.922;9.444;2023-04-03T16:47:45;6.50;96.80
7518;DHT22;3800;48.922;9.444;2023-04-03T16:50:14;6.40;97.10
7518;DHT22;3800;48.922;9.444;2023-04-03T16:52:42;6.30;97.50
7518;DHT22;3800;48.922;9.444;2023-04-03T16:55:10;6.30;97.30
7518;DHT22;3800;48.922;9.444;2023-04-03T16:57:39;6.40;96.90
7518;DHT22;3800;48.922;9.444;2023-04-03T17:00:08;6.40;95.80
7518;DHT22;3800;48.922;9.444;2023-04-03T17:02:36;6.40;96.40
7518;DHT22;3800;48.922;9.444;2023-04-03T17:05:05;6.50;96.70
7518;DHT22;3800;48.922;9.444;2023-04-03T17:07:34;6.50;97.00
7518;DHT22;3800;48.922;9.444;2023-04-03T17:10:02;6.50;96.30
7518;DHT22;3800;48.922;9.444;2023-04-03T17:12:30;6.50;96.50